Flight Track Log - Related Links

Times and Time Zones

All times are in EDT time to prevent confusion due to time zone crossing. See the QLK108D flight status page for this flight to view local times or setup timezone preferences in your user account.

Time Position Orientation Groundspeed Altitude Reporting Facility
EDT Latitude Longitude Course Direction KTS MPH feet Rate Location/Type
Mon 10:49:36 PM -33.9424 151.1875 North 123 142 1,000  Level Aus ATC (RADAR)
Mon 10:50:09 PM -33.9172 151.1924 North 162 186 2,100 2,475 Climbing Aus ATC (RADAR)
Mon 10:50:56 PM -33.8765 151.2028 12° North 194 223 4,300 1,241 Climbing Aus ATC (RADAR)
Mon 10:52:34 PM -33.7774 151.2641 27° Northeast 246 283 5,100 326 Climbing Aus ATC (RADAR)
Mon 10:53:05 PM -33.7439 151.2831 25° Northeast 252 290 5,000 2,106 Descending Aus ATC (RADAR)
Mon 10:54:08 PM -33.6816 151.3202 26° Northeast 221 254 8,400 2,755 Climbing Aus ATC (RADAR)
Mon 10:54:43 PM -33.6482 151.3401 26° Northeast 229 264 9,500 1,971 Climbing Aus ATC (RADAR)
Mon 10:55:18 PM -33.6103 151.3631 27° Northeast 258 297 10,700 2,268 Climbing Aus ATC (RADAR)
Mon 10:56:05 PM -33.5571 151.3947 26° Northeast 278 320 12,600 2,193 Climbing Aus ATC (RADAR)
Mon 10:57:43 PM -33.4428 151.4621 26° Northeast 282 325 16,000 1,961 Climbing Aus ATC (RADAR)
Mon 10:58:38 PM -33.3765 151.5005 26° Northeast 288 331 17,600 1,733 Climbing Aus ATC (RADAR)
Mon 10:59:13 PM -33.3329 151.5247 25° Northeast 293 337 18,600 1,583 Climbing Aus ATC (RADAR)
Mon 10:59:50 PM -33.2878 151.5519 27° Northeast 300 345 19,500 1,417 Climbing Aus ATC (RADAR)
Mon 11:00:25 PM -33.2430 151.5776 26° Northeast 305 351 20,300 1,050 Climbing Aus ATC (RADAR)
Mon 11:01:10 PM -33.1836 151.6116 26° Northeast 318 366 20,900 240 Climbing Aus ATC (RADAR)
Mon 11:02:55 PM -33.0236 151.7028 26° Northeast 374 430 20,900  Level Aus ATC (RADAR)
Mon 11:03:25 PM -32.9754 151.7306 26° Northeast 381 438 20,900  Level Aus ATC (RADAR)
Mon 11:04:28 PM -32.8723 151.7891 25° Northeast 387 445 20,900  Level Aus ATC (RADAR)
Mon 11:05:05 PM -32.8137 151.8220 25° Northeast 382 440 20,900  Level Aus ATC (RADAR)
Mon 11:05:40 PM -32.7580 151.8538 26° Northeast 379 436 20,900  Level Aus ATC (RADAR)
Mon 11:06:27 PM -32.6802 151.8980 26° Northeast 382 440 20,900  Level Aus ATC (RADAR)
Mon 11:08:34 PM -32.4776 152.0108 25° Northeast 380 437 20,900  Level Aus ATC (RADAR)
Mon 11:09:34 PM -32.3809 152.0642 25° Northeast 380 437 20,900  Level Aus ATC (RADAR)
Mon 11:10:19 PM -32.3091 152.1046 25° Northeast 378 435 20,900  Level Aus ATC (RADAR)
Mon 11:10:57 PM -32.2473 152.1390 25° Northeast 381 438 20,900  Level Aus ATC (RADAR)
Mon 11:11:42 PM -32.1747 152.1792 25° Northeast 385 443 20,900  Level Aus ATC (RADAR)
Mon 11:13:34 PM -31.9972 152.2782 25° Northeast 377 434 20,900 34 Level Aus ATC (RADAR)
Mon 11:14:37 PM -31.8951 152.3334 25° Northeast 380 437 21,000 104 Climbing Aus ATC (RADAR)
Mon 11:15:29 PM -31.8132 152.3785 25° Northeast 376 433 21,100 69 Climbing Aus ATC (RADAR)
Mon 11:16:04 PM -31.7573 152.4097 25° Northeast 377 434 21,100 -73 Level Aus ATC (RADAR)
Mon 11:16:51 PM -31.6802 152.4520 25° Northeast 377 434 21,000 -355 Descending Aus ATC (RADAR)
Mon 11:18:36 PM -31.5153 152.5427 25° Northeast 372 428 20,200 -713 Descending Aus ATC (RADAR)
Mon 11:19:31 PM -31.4296 152.5883 24° Northeast 369 425 19,100 -1,143 Descending Aus ATC (RADAR)
Mon 11:20:21 PM -31.3526 152.6307 25° Northeast 365 420 18,200 -1,091 Descending Aus ATC (RADAR)
Mon 11:20:59 PM -31.2982 152.6589 24° Northeast 349 402 17,500 -1,091 Descending Aus ATC (RADAR)
Mon 11:21:49 PM -31.2226 152.7016 26° Northeast 352 405 16,600 -1,114 Descending Aus ATC (RADAR)
Mon 11:23:46 PM -31.0523 152.7945 25° Northeast 341 392 14,400 -1,291 Descending Aus ATC (RADAR)
Mon 11:24:41 PM -30.9711 152.8301 21° North 343 395 12,900 -1,706 Descending Aus ATC (RADAR)
Mon 11:25:28 PM -30.9031 152.8599 21° North 331 381 11,500 -1,756 Descending Aus ATC (RADAR)
Mon 11:26:03 PM -30.8544 152.8814 21° North 318 366 10,500 -1,694 Descending Aus ATC (RADAR)
Mon 11:26:53 PM -30.7884 152.9115 21° North 299 344 9,100 -1,531 Descending Aus ATC (RADAR)
Mon 11:28:28 PM -30.6738 152.9526 17° North 263 303 6,800 -1,376 Descending Aus ATC (RADAR)
Mon 11:29:30 PM -30.5993 152.9743 14° North 263 303 5,500 -1,260 Descending Aus ATC (RADAR)
Mon 11:30:08 PM -30.5571 152.9868 14° North 252 290 4,700 -1,315 Descending Aus ATC (RADAR)
Mon 11:30:43 PM -30.5179 152.9982 14° North 247 284 3,900 -1,267 Descending Aus ATC (RADAR)
Mon 11:31:38 PM -30.4591 153.0157 14° North 233 268 2,800 -1,145 Descending Aus ATC (RADAR)
Mon 11:32:33 PM -30.4058 153.0354 18° North 235 270 1,800 -947 Descending Aus ATC (RADAR)
Mon 11:33:32 PM -30.3816 153.0680 49° Northeast 122 140 1,000 -814 Descending Aus ATC (RADAR)

Login

Don't have an account? Register now (free) for customized features, flight alerts, and more!